Главная страница
METAR-TAF:

METAR-TAF

Аэропорты :

Тулча, Румыния

широта: 45-11N, долгота: 028-49E, высота над уровнем моря: 4 м

Текущие метеонаблюдения

Эта сводка был подготовлена 20 минут назад, в 12:00 UTC
Ветер 14 Узел от южный-юго-западный
Температура 14°C
Влажность 55%
Давление 1009 hPa
Видимость 10 км и более
Нет облачности ниже 1500 м, и нет кучево-дождевой облачности

METAR: LRTC 151200Z 21014KT CAVOK 14/05 Q1009

Время: 14:20 (12:20 UTC)

Прогноз

Эта сводка был подготовлена 1 час и 20 минут назад, в 11:00 UTC
Прогноз действительный с 15-го 12 UTC до 15-го 21 UTC
Ветер 12 Узел от южный-юго-западный
Видимость 10 км и более
Нет облачности ниже 1500 м, и нет кучево-дождевой облачности

TAF: LRTC 151100Z 1512/1521 20012KT CAVOK

Метеонаблюдения и прогнозы для более 4000 аэропортов (сводки METAR и TAF).

Имеющиеся станции представлены на карте желтыми и красными точками.

Чтобы увидеть название станции, наведите на нее мышь.

Затем щелкните, чтобы увидеть метеонаблюдения и метеопрогнозы.

Управление картой: чтобы увеличить масштаб, щелкните зеленые кнопки с черным крестиком; чтобы уменьшить масштаб, щелкните зеленую кнопку с тире; для просмотра соседних карт щелкайте зеленые стрелки.


METAR-TAF: